Data for 02/14/2010

Time Sea-Level Adjusted Pressure Absolute Pressure Temperature Relative Humidity Dew Point   
(mb) (inHg) (mb) (inHg) (C) (F) (%) (C) (F)
00:05 1024 30.24 853 25.19 -3.8 25.2 79 -6.9 19.6
00:10 1024 30.24 853 25.19 -3.8 25.2 79 -6.9 19.6
00:15 1024 30.24 853 25.19 -3.9 25 80 -6.9 19.5
00:20 1024 30.24 853 25.19 -3.9 24.9 80 -6.9 19.5
00:25 1024 30.24 853 25.19 -4 24.7 80 -6.9 19.5
00:30 1024 30.24 853 25.19 -4.1 24.6 80 -7 19.4
00:35 1024 30.24 853 25.19 -4.2 24.5 80 -7.1 19.3
00:40 1024 30.24 853 25.19 -4.2 24.5 79 -7.3 18.9
00:45 1024 30.24 853 25.19 -4.3 24.2 79 -7.5 18.5
00:50 1024 30.24 853 25.19 -4.5 23.8 79 -7.6 18.3
00:55 1024 30.24 853 25.19 -4.6 23.7 79 -7.7 18.1
01:00 1024 30.24 853 25.19 -4.8 23.4 79 -7.9 17.8
01:05 1024 30.24 853 25.19 -5 23 80 -7.9 17.8
01:10 1024 30.24 853 25.19 -5 23.1 80 -7.9 17.7
01:15 1024 30.24 853 25.19 -5 22.9 80 -8 17.6
01:20 1024 30.24 853 25.19 -5.1 22.8 79 -8.2 17.3
01:25 1024 30.24 853 25.19 -5.2 22.7 79 -8.2 17.2
01:30 1024 30.24 853 25.19 -5.3 22.5 79 -8.3 17.1
01:35 1024 30.24 853 25.19 -5.4 22.2 80 -8.4 16.9
01:40 1024 30.24 853 25.19 -5.5 22 80 -8.5 16.6
01:45 1024 30.24 853 25.19 -5.5 22 80 -8.5 16.7
01:50 1024 30.24 853 25.19 -5.6 22 80 -8.5 16.6
01:55 1024 30.24 853 25.19 -5.7 21.8 80 -8.5 16.6
02:00 1024 30.24 853 25.19 -5.8 21.6 80 -8.6 16.5
02:05 1024 30.24 853 25.19 -5.8 21.6 80 -8.7 16.3
02:10 1024 30.24 853 25.19 -5.9 21.4 81 -8.6 16.4
02:15 1024 30.24 853 25.19 -5.9 21.4 80 -8.8 16.2
02:20 1024 30.24 853 25.19 -5.8 21.5 79 -8.9 16
02:25 1024 30.24 853 25.19 -5.9 21.4 79 -9 15.8
02:30 1024 30.24 853 25.19 -6 21.2 79 -9 15.8
02:35 1024 30.24 853 25.19 -6 21.1 80 -9 15.8
02:40 1024 30.24 853 25.19 -6 21.3 79 -9 15.8
02:45 1024 30.24 853 25.19 -6 21.1 79 -9.1 15.7
02:50 1024 30.24 853 25.19 -6 21.2 79 -9 15.7
02:55 1024 30.24 853 25.19 -6 21.3 79 -9.1 15.6
03:00 1024 30.24 853 25.19 -6 21.3 79 -9.1 15.6
03:05 1024 30.24 853 25.19 -6 21.2 78 -9.2 15.4
03:10 1024 30.24 853 25.19 -6 21.1 78 -9.3 15.3
03:15 1024 30.24 853 25.19 -6.1 21.1 78 -9.3 15.3
03:20 1024 30.24 853 25.19 -6 21.2 78 -9.2 15.4
03:25 1024 30.24 853 25.19 -6 21.2 79 -9.1 15.5
03:30 1024 30.24 853 25.19 -6 21.3 79 -9.1 15.7
03:35 1024 30.24 853 25.19 -5.9 21.4 78 -9.1 15.6
03:40 1024 30.24 853 25.19 -5.7 21.8 78 -9 15.9
03:45 1024 30.24 853 25.19 -5.6 21.9 78 -8.9 15.9
03:50 1024 30.24 853 25.19 -5.6 22 77 -9 15.9
03:55 1024 30.24 853 25.19 -5.6 22 77 -8.9 16
04:00 1024 30.24 853 25.19 -5.6 22 77 -9 15.9
04:05 1024 30.24 853 25.19 -5.6 22 77 -8.9 15.9
04:10 1024 30.24 853 25.19 -5.6 22 77 -8.9 15.9
04:15 1024 30.24 853 25.19 -5.5 22 77 -8.9 15.9
04:20 1024 30.24 853 25.19 -5.6 21.9 77 -9 15.8
04:25 1024 30.24 853 25.19 -5.6 22 77 -9 15.7
04:30 1024 30.24 853 25.19 -5.5 22 77 -9 15.7
04:35 1024 30.24 853 25.19 -5.5 22 77 -8.9 16
04:40 1024 30.24 853 25.19 -5.6 21.9 78 -8.9 16
04:45 1024 30.24 853 25.19 -5.5 22 78 -8.8 16.2
04:50 1024 30.24 853 25.19 -5.5 22.1 78 -8.8 16.2
04:55 1024 30.24 853 25.19 -5.5 22.1 78 -8.8 16.1
05:00 1024 30.24 853 25.19 -5.5 22.1 78 -8.7 16.3
05:05 1024 30.24 854 25.22 -5.4 22.3 78 -8.7 16.3
05:10 1024 30.24 854 25.22 -5.3 22.5 77 -8.7 16.4
05:15 1024 30.24 854 25.22 -5.3 22.5 78 -8.6 16.5
05:20 1025 30.27 854 25.22 -5.3 22.4 77 -8.7 16.4
05:25 1025 30.27 854 25.22 -5.3 22.4 77 -8.7 16.3
05:30 1025 30.27 854 25.22 -5.3 22.5 77 -8.6 16.4
05:35 1025 30.27 854 25.22 -5.2 22.7 77 -8.6 16.5
05:40 1025 30.27 854 25.22 -5.1 22.8 76 -8.6 16.5
05:45 1025 30.27 854 25.22 -5 22.9 76 -8.7 16.3
05:50 1025 30.27 854 25.22 -5 22.9 75 -8.8 16.2
05:55 1025 30.27 854 25.22 -5 23 75 -8.9 16
06:00 1025 30.27 854 25.22 -5 23.1 74 -8.9 16
06:05 1025 30.27 854 25.22 -4.9 23.1 74 -8.8 16.1
06:10 1025 30.27 854 25.22 -4.9 23.2 75 -8.7 16.3
06:15 1025 30.27 854 25.22 -4.9 23.3 74 -8.7 16.3
06:20 1025 30.27 854 25.22 -4.9 23.2 76 -8.5 16.6
06:25 1025 30.27 854 25.22 -5 23 76 -8.6 16.5
06:30 1025 30.27 854 25.22 -5 22.9 76 -8.6 16.6
06:35 1025 30.27 854 25.22 -5.1 22.9 76 -8.7 16.4
06:40 1025 30.27 854 25.22 -5.1 22.9 76 -8.6 16.5
06:45 1025 30.27 854 25.22 -5.1 22.9 76 -8.7 16.3
06:50 1025 30.27 854 25.22 -5.1 22.9 76 -8.7 16.3
06:55 1024 30.24 854 25.22 -5.1 22.7 76 -8.8 16.2
07:00 1024 30.24 854 25.22 -5.2 22.7 76 -8.8 16.2
07:05 1024 30.24 854 25.22 -5.1 22.8 76 -8.8 16.2
07:10 1024 30.24 854 25.22 -5.1 22.8 76 -8.6 16.4
07:15 1024 30.24 854 25.22 -5.1 22.9 76 -8.7 16.4
07:20 1024 30.24 854 25.22 -5.1 22.9 76 -8.7 16.4
07:25 1024 30.24 854 25.22 -5 23 76 -8.7 16.4
07:30 1024 30.24 854 25.22 -5 23 76 -8.7 16.3
07:35 1024 30.24 854 25.22 -5 22.9 75 -8.8 16.2
07:40 1024 30.24 854 25.22 -5 22.9 75 -8.8 16.2
07:45 1024 30.24 854 25.22 -5 23 75 -8.8 16.1
07:50 1024 30.24 854 25.22 -4.9 23.1 75 -8.7 16.3
07:55 1024 30.24 854 25.22 -4.9 23.2 75 -8.8 16.2
08:00 1024 30.24 854 25.22 -4.9 23.2 74 -8.8 16.2
08:05 1024 30.24 854 25.22 -4.8 23.3 74 -8.8 16.2
08:10 1024 30.24 854 25.22 -4.8 23.4 74 -8.7 16.3
08:15 1024 30.24 854 25.22 -4.8 23.3 74 -8.7 16.3
08:20 1024 30.24 854 25.22 -4.8 23.3 74 -8.7 16.3
08:25 1024 30.24 854 25.22 -4.9 23.3 75 -8.7 16.3
08:30 1024 30.24 854 25.22 -4.8 23.3 73 -8.9 15.9
08:35 1024 30.24 854 25.22 -4.7 23.6 74 -8.7 16.4
08:40 1024 30.24 854 25.22 -4.8 23.4 73 -8.8 16.1
08:45 1024 30.24 854 25.22 -4.8 23.3 73 -8.9 16
08:50 1024 30.24 854 25.22 -4.7 23.5 73 -8.9 16
08:55 1024 30.24 854 25.22 -4.5 23.8 72 -8.9 16
09:00 1024 30.24 854 25.22 -4.6 23.7 72 -8.9 16
09:05 1025 30.27 854 25.22 -4.4 24.1 71 -8.9 16.1
09:10 1025 30.27 854 25.22 -4.1 24.7 69 -9 15.8
09:15 1025 30.27 854 25.22 -3.8 25.1 68 -8.9 16.1
09:20 1025 30.27 854 25.22 -3.8 25.1 68 -8.8 16.1
09:25 1025 30.27 854 25.22 -4 24.8 70 -8.7 16.3
09:30 1025 30.27 854 25.22 -4.1 24.6 70 -8.7 16.3
09:35 1025 30.27 854 25.22 -3.4 25.8 66 -8.9 16
09:40 1025 30.27 854 25.22 -3.2 26.3 66 -8.6 16.4
09:45 1025 30.27 854 25.22 -3.1 26.4 66 -8.5 16.7
09:50 1025 30.27 854 25.22 -3 26.6 66 -8.4 16.8
09:55 1025 30.27 854 25.22 -2.5 27.5 64 -8.5 16.8
10:00 1025 30.27 854 25.22 -2.2 28 65 -8 17.6
10:05 1025 30.27 854 25.22 -2.3 27.8 65 -8 17.6
10:10 1024 30.24 854 25.22 -2.5 27.5 65 -8.1 17.4
10:15 1024 30.24 854 25.22 -1.9 28.5 64 -8 17.7
10:20 1024 30.24 854 25.22 -1.5 29.3 62 -7.9 17.8
10:25 1024 30.24 854 25.22 -1.3 29.7 62 -7.7 18.1
10:30 1024 30.24 854 25.22 -1.3 29.7 64 -7.3 18.9
10:35 1024 30.24 854 25.22 -1.1 30.1 62 -7.4 18.8
10:40 1024 30.24 854 25.22 -1.1 30 61 -7.6 18.3
10:45 1024 30.24 854 25.22 -0.5 31.2 60 -7.2 19
10:50 1024 30.24 854 25.22 -0.6 31 62 -7.1 19.3
10:55 1024 30.24 854 25.22 -0.4 31.3 60 -7.1 19.2
11:00 1025 30.27 854 25.22 -0.1 31.8 59 -7.1 19.2
11:05 1025 30.27 854 25.22 0.3 32.5 57 -7.2 19.1
11:10 1025 30.27 854 25.22 0.7 33.2 57 -7 19.4
11:15 1025 30.27 854 25.22 0.8 33.4 56 -7 19.4
11:20 1024 30.24 854 25.22 1.4 34.4 56 -6.5 20.3
11:25 1024 30.24 854 25.22 1.9 35.4 53 -6.6 20.1
11:30 1024 30.24 854 25.22 1.8 35.3 56 -6.1 21.1
11:35 1024 30.24 854 25.22 2.2 36 53 -6.4 20.4
11:40 1024 30.24 854 25.22 2.3 36.2 52 -6.5 20.3
11:45 1024 30.24 854 25.22 0.8 33.4 61 -6 21.2
11:50 1024 30.24 853 25.19 0.4 32.8 60 -6.4 20.6
11:55 1024 30.24 853 25.19 1.3 34.4 55 -6.8 19.8
12:00 1024 30.24 853 25.19 1.9 35.3 56 -6.1 21
12:05 1024 30.24 853 25.19 1.4 34.4 58 -6 21.1
12:10 1024 30.24 853 25.19 0.2 32.4 63 -6.1 21.1
12:15 1024 30.24 853 25.19 0.9 33.7 58 -6.3 20.6
12:20 1024 30.24 853 25.19 1.4 34.6 58 -6 21.2
12:25 1024 30.24 853 25.19 2.1 35.8 54 -6.3 20.7
12:30 1024 30.24 853 25.19 2.5 36.5 56 -5.5 22.1
12:35 1024 30.24 853 25.19 2.5 36.5 54 -5.9 21.3
12:40 1023 30.21 853 25.19 3.1 37.6 53 -5.5 22.1
12:45 1023 30.21 852 25.16 2.5 36.5 56 -5.5 22.1
12:50 1023 30.21 852 25.16 1.4 34.5 57 -6.1 21
12:55 1023 30.21 852 25.16 1.5 34.6 56 -6.5 20.4
13:00 1023 30.21 852 25.16 2.7 36.8 52 -6.1 20.9
13:05 1023 30.21 852 25.16 3.8 38.8 52 -5.3 22.5
13:10 1023 30.21 852 25.16 3.7 38.7 51 -5.4 22.3
13:15 1023 30.21 852 25.16 2.7 36.9 53 -5.8 21.5
13:20 1023 30.21 852 25.16 2.5 36.5 54 -5.8 21.6
13:25 1023 30.21 852 25.16 3.5 38.3 49 -6.2 20.8
13:30 1023 30.21 852 25.16 4 39.3 48 -6.1 21
13:35 1023 30.21 852 25.16 2.9 37.2 53 -5.7 21.8
13:40 1023 30.21 852 25.16 2.3 36.1 54 -6.1 21.1
13:45 1023 30.21 852 25.16 2.8 37 52 -6.3 20.7
13:50 1023 30.21 852 25.16 2 35.5 57 -5.7 21.7
13:55 1023 30.21 852 25.16 2.5 36.5 53 -6.1 21
14:00 1023 30.21 852 25.16 1.9 35.4 56 -5.9 21.3
14:05 1023 30.21 852 25.16 0.4 32.7 64 -5.6 22
14:10 1023 30.21 852 25.16 0.3 32.5 62 -6.3 20.7
14:15 1023 30.21 852 25.16 1.5 34.8 58 -5.9 21.3
14:20 1023 30.21 852 25.16 1.9 35.5 57 -5.7 21.7
14:25 1023 30.21 852 25.16 1.9 35.4 59 -5.3 22.5
14:30 1023 30.21 852 25.16 1.6 34.8 59 -5.5 22.1
14:35 1023 30.21 852 25.16 2.7 36.8 52 -6.1 20.9
14:40 1023 30.21 852 25.16 3.1 37.5 54 -5.2 22.6
14:45 1022 30.18 852 25.16 2.7 36.8 54 -5.7 21.8
14:50 1022 30.18 852 25.16 1.8 35.3 56 -6.1 21
14:55 1023 30.21 852 25.16 2.5 36.5 55 -5.8 21.6
15:00 1023 30.21 852 25.16 3.3 37.9 51 -5.9 21.4
15:05 1023 30.21 852 25.16 3.3 38 50 -6.1 21
15:10 1023 30.21 852 25.16 3.5 38.2 51 -5.7 21.8
15:15 1022 30.18 852 25.16 3.2 37.8 52 -5.7 21.7
15:20 1022 30.18 852 25.16 1.9 35.5 57 -5.7 21.8
15:25 1022 30.18 852 25.16 2.2 35.9 55 -5.9 21.4
15:30 1022 30.18 852 25.16 2.7 36.9 54 -5.6 21.9
15:35 1022 30.18 852 25.16 2.8 37 55 -5.4 22.3
15:40 1022 30.18 852 25.16 2.4 36.2 56 -5.5 22.2
15:45 1022 30.18 851 25.13 2 35.7 57 -5.6 21.9
15:50 1022 30.18 851 25.13 1.9 35.5 59 -5.2 22.7
15:55 1022 30.18 851 25.13 1.5 34.7 60 -5.3 22.4
16:00 1022 30.18 851 25.13 0.8 33.4 62 -5.7 21.8
16:05 1022 30.18 851 25.13 1.1 33.9 60 -5.8 21.6
16:10 1022 30.18 851 25.13 1.3 34.3 59 -5.8 21.5
16:15 1022 30.18 851 25.13 1.3 34.4 61 -5.4 22.2
16:20 1022 30.18 851 25.13 1.3 34.3 61 -5.4 22.2
16:25 1022 30.18 851 25.13 1.3 34.3 61 -5.5 22.1
16:30 1022 30.18 851 25.13 1.1 34 62 -5.3 22.4
16:35 1022 30.18 851 25.13 1 33.8 61 -5.7 21.8
16:40 1022 30.18 851 25.13 0.8 33.5 61 -5.8 21.5
16:45 1022 30.18 851 25.13 0.8 33.4 63 -5.5 22.1
16:50 1022 30.18 851 25.13 0.9 33.7 62 -5.5 22
16:55 1022 30.18 851 25.13 0.7 33.3 65 -5.2 22.7
17:00 1022 30.18 851 25.13 0.6 33.1 64 -5.4 22.2
17:05 1022 30.18 851 25.13 0.1 32.2 65 -5.7 21.8
17:10 1022 30.18 851 25.13 -0.2 31.7 64 -6.1 21
17:15 1022 30.18 851 25.13 -0.4 31.3 64 -6.3 20.7
17:20 1022 30.18 851 25.13 -0.6 31 65 -6.3 20.7
17:25 1022 30.18 851 25.13 -0.8 30.7 67 -6.1 21
17:30 1022 30.18 851 25.13 -0.9 30.4 68 -6.1 21
17:35 1021 30.15 851 25.13 -0.9 30.4 66 -6.6 20.2
17:40 1021 30.15 851 25.13 -0.9 30.3 67 -6.3 20.6
17:45 1021 30.15 851 25.13 -0.8 30.5 65 -6.6 20
17:50 1021 30.15 851 25.13 -0.9 30.4 66 -6.5 20.3
17:55 1021 30.15 851 25.13 -1 30.2 66 -6.5 20.3
18:00 1021 30.15 850 25.1 -1.2 29.8 67 -6.7 20
18:05 1021 30.15 850 25.1 -1.3 29.7 67 -6.6 20.2
18:10 1021 30.15 850 25.1 -1.3 29.7 67 -6.6 20.1
18:15 1021 30.15 851 25.13 -1.3 29.6 66 -6.8 19.8
18:20 1021 30.15 851 25.13 -1.3 29.7 65 -7 19.5
18:25 1021 30.15 851 25.13 -1.3 29.7 66 -6.7 19.9
18:30 1021 30.15 850 25.1 -1.2 29.9 66 -6.7 19.9
18:35 1021 30.15 851 25.13 -1.2 29.8 66 -6.9 19.7
18:40 1021 30.15 851 25.13 -1.2 29.8 65 -6.9 19.5
18:45 1021 30.15 851 25.13 -1.2 29.8 66 -6.8 19.8
18:50 1021 30.15 851 25.13 -1.2 29.8 67 -6.7 19.9
18:55 1021 30.15 851 25.13 -1.3 29.7 67 -6.6 20.1
19:00 1022 30.18 851 25.13 -1.3 29.7 67 -6.6 20.2
19:05 1022 30.18 851 25.13 -1.3 29.7 66 -6.8 19.8
19:10 1022 30.18 851 25.13 -1.3 29.7 66 -6.7 19.9
19:15 1022 30.18 851 25.13 -1.2 29.8 66 -6.7 19.9
19:20 1022 30.18 851 25.13 -1.2 29.8 67 -6.7 20
19:25 1022 30.18 851 25.13 -1.2 29.9 67 -6.6 20.1
19:30 1021 30.15 851 25.13 -1.2 29.9 66 -6.7 20
19:35 1022 30.18 851 25.13 -1.2 29.9 66 -6.8 19.8
19:40 1021 30.15 851 25.13 -1.1 30 65 -6.8 19.7
19:45 1021 30.15 851 25.13 -1.1 30.1 64 -7 19.5
19:50 1021 30.15 851 25.13 -1 30.1 66 -6.7 20
19:55 1021 30.15 851 25.13 -1.1 30 66 -6.6 20.1
20:00 1021 30.15 851 25.13 -1.1 30 66 -6.7 19.9
20:05 1021 30.15 850 25.1 -1.2 29.9 65 -6.8 19.7
20:10 1021 30.15 850 25.1 -1.2 29.9 65 -6.8 19.7
20:15 1021 30.15 850 25.1 -1.1 30 64 -7 19.4
20:20 1021 30.15 850 25.1 -1 30.1 64 -6.9 19.5
20:25 1021 30.15 850 25.1 -1 30.2 65 -6.9 19.7
20:30 1021 30.15 850 25.1 -1 30.1 64 -6.9 19.5
20:35 1021 30.15 850 25.1 -1.1 29.9 66 -6.8 19.8
20:40 1021 30.15 850 25.1 -1.2 29.8 66 -6.8 19.8
20:45 1021 30.15 850 25.1 -1.3 29.7 67 -6.7 19.9
20:50 1021 30.15 850 25.1 -1.3 29.7 67 -6.7 20
20:55 1021 30.15 850 25.1 -1.2 29.9 67 -6.5 20.3
21:00 1021 30.15 850 25.1 -1.3 29.6 68 -6.5 20.2
21:05 1021 30.15 850 25.1 -1.4 29.5 67 -6.7 19.9
21:10 1021 30.15 850 25.1 -1.3 29.7 67 -6.6 20.1
21:15 1021 30.15 850 25.1 -1.2 29.8 67 -6.6 20.1
21:20 1021 30.15 850 25.1 -1.1 30.1 66 -6.6 20
21:25 1021 30.15 850 25.1 -0.9 30.3 66 -6.5 20.3
21:30 1021 30.15 850 25.1 -0.6 30.9 65 -6.3 20.6
21:35 1021 30.15 850 25.1 -0.5 31.2 67 -5.9 21.3
21:40 1021 30.15 850 25.1 -0.5 31.1 69 -5.6 22
21:45 1021 30.15 850 25.1 -0.4 31.3 69 -5.4 22.3
21:50 1021 30.15 850 25.1 -0.2 31.6 70 -5 23
21:55 1021 30.15 850 25.1 -0.1 31.8 71 -4.8 23.4
22:00 1021 30.15 850 25.1 -0.1 31.8 72 -4.6 23.7
22:05 1021 30.15 850 25.1 -0.1 31.8 72 -4.5 23.9
22:10 1021 30.15 850 25.1 -0 31.9 72 -4.5 23.8
22:15 1021 30.15 850 25.1 -0 32 69 -4.9 23.1
22:20 1021 30.15 850 25.1 0 32 69 -4.9 23.1
22:25 1021 30.15 850 25.1 0 32 71 -4.6 23.8
22:30 1021 30.15 850 25.1 0.1 32.1 71 -4.6 23.7
22:35 1021 30.15 850 25.1 0.1 32.2 68 -5.1 22.9
22:40 1021 30.15 850 25.1 -0.2 31.6 70 -5.1 22.8
22:45 1021 30.15 851 25.13 -0.5 31.1 69 -5.4 22.3
22:50 1021 30.15 851 25.13 -0.6 30.9 70 -5.4 22.3
22:55 1021 30.15 851 25.13 -0.7 30.7 71 -5.4 22.3
23:00 1021 30.15 851 25.13 -0.6 30.9 70 -5.5 22.1
23:05 1021 30.15 851 25.13 -0.8 30.6 70 -5.5 22.1
23:10 1021 30.15 851 25.13 -1 30.2 72 -5.5 22.2
23:15 1021 30.15 851 25.13 -1 30.1 72 -5.4 22.3
23:20 1021 30.15 851 25.13 -1 30.2 71 -5.6 21.9
23:25 1021 30.15 851 25.13 -0.8 30.5 71 -5.5 22.1
23:30 1021 30.15 851 25.13 -0.7 30.8 70 -5.5 22
23:35 1021 30.15 851 25.13 -0.8 30.5 70 -5.6 21.9
23:40 1021 30.15 851 25.13 -1 30.2 71 -5.6 22
23:45 1021 30.15 851 25.13 -1 30.2 71 -5.7 21.8
23:50 1021 30.15 851 25.13 -0.9 30.3 71 -5.5 22.1
23:55 1021 30.15 851 25.13 -0.9 30.5 74 -4.9 23.2
24:00 1021 30.15 851 25.13 -1 30.2 74 -5.1 22.8